sensor_id;sensor_type;location;lat;lon;timestamp;temperature;humidity
12006;DHT22;6062;47.294;12.182;2022-12-20T00:01:20;9.30;54.60
12006;DHT22;6062;47.294;12.182;2022-12-20T00:03:51;9.30;54.80
12006;DHT22;6062;47.294;12.182;2022-12-20T00:06:19;9.30;54.70
12006;DHT22;6062;47.294;12.182;2022-12-20T00:08:46;9.30;54.60
12006;DHT22;6062;47.294;12.182;2022-12-20T00:11:17;9.30;54.60
12006;DHT22;6062;47.294;12.182;2022-12-20T00:13:45;9.30;54.70
12006;DHT22;6062;47.294;12.182;2022-12-20T00:16:20;9.20;54.80
12006;DHT22;6062;47.294;12.182;2022-12-20T00:18:50;9.20;54.90
12006;DHT22;6062;47.294;12.182;2022-12-20T00:21:18;9.20;55.00
12006;DHT22;6062;47.294;12.182;2022-12-20T00:23:44;9.20;55.00
12006;DHT22;6062;47.294;12.182;2022-12-20T00:26:13;9.10;55.00
12006;DHT22;6062;47.294;12.182;2022-12-20T00:28:41;9.10;55.10
12006;DHT22;6062;47.294;12.182;2022-12-20T00:31:09;9.10;55.20
12006;DHT22;6062;47.294;12.182;2022-12-20T00:33:36;9.10;55.30
12006;DHT22;6062;47.294;12.182;2022-12-20T00:36:04;9.10;55.30
12006;DHT22;6062;47.294;12.182;2022-12-20T00:38:31;9.10;55.30
12006;DHT22;6062;47.294;12.182;2022-12-20T00:41:25;9.10;55.40
12006;DHT22;6062;47.294;12.182;2022-12-20T00:43:53;9.10;55.60
12006;DHT22;6062;47.294;12.182;2022-12-20T00:46:20;9.10;55.40
12006;DHT22;6062;47.294;12.182;2022-12-20T00:48:47;9.00;55.50
12006;DHT22;6062;47.294;12.182;2022-12-20T00:51:16;9.00;55.50
12006;DHT22;6062;47.294;12.182;2022-12-20T00:53:44;9.00;55.60
12006;DHT22;6062;47.294;12.182;2022-12-20T00:56:11;9.10;55.70
12006;DHT22;6062;47.294;12.182;2022-12-20T00:58:40;9.10;55.70
12006;DHT22;6062;47.294;12.182;2022-12-20T01:01:21;9.00;55.70
12006;DHT22;6062;47.294;12.182;2022-12-20T01:03:50;9.10;55.80
12006;DHT22;6062;47.294;12.182;2022-12-20T01:06:17;9.10;55.50
12006;DHT22;6062;47.294;12.182;2022-12-20T01:08:44;9.10;55.40
12006;DHT22;6062;47.294;12.182;2022-12-20T01:11:13;9.10;55.30
12006;DHT22;6062;47.294;12.182;2022-12-20T01:13:43;9.10;55.20
12006;DHT22;6062;47.294;12.182;2022-12-20T01:16:38;9.10;55.10
12006;DHT22;6062;47.294;12.182;2022-12-20T01:19:06;9.10;55.20
12006;DHT22;6062;47.294;12.182;2022-12-20T01:21:33;9.10;55.20
12006;DHT22;6062;47.294;12.182;2022-12-20T01:23:59;9.10;55.20
12006;DHT22;6062;47.294;12.182;2022-12-20T01:26:27;9.10;55.30
12006;DHT22;6062;47.294;12.182;2022-12-20T01:28:57;9.10;55.40
12006;DHT22;6062;47.294;12.182;2022-12-20T01:31:25;9.00;55.40
12006;DHT22;6062;47.294;12.182;2022-12-20T01:33:52;9.00;55.60
12006;DHT22;6062;47.294;12.182;2022-12-20T01:36:30;9.10;55.60
12006;DHT22;6062;47.294;12.182;2022-12-20T01:38:58;9.10;55.70
12006;DHT22;6062;47.294;12.182;2022-12-20T01:41:27;9.10;55.70
12006;DHT22;6062;47.294;12.182;2022-12-20T01:43:59;9.10;55.60
12006;DHT22;6062;47.294;12.182;2022-12-20T01:46:29;9.10;55.60
12006;DHT22;6062;47.294;12.182;2022-12-20T01:49:09;9.10;55.50
12006;DHT22;6062;47.294;12.182;2022-12-20T01:51:44;9.10;55.40
12006;DHT22;6062;47.294;12.182;2022-12-20T01:54:17;9.10;55.40
12006;DHT22;6062;47.294;12.182;2022-12-20T01:56:49;9.10;55.40
12006;DHT22;6062;47.294;12.182;2022-12-20T01:59:19;9.10;55.50
12006;DHT22;6062;47.294;12.182;2022-12-20T02:01:45;9.10;55.60
12006;DHT22;6062;47.294;12.182;2022-12-20T02:04:11;9.10;55.70
12006;DHT22;6062;47.294;12.182;2022-12-20T02:06:36;9.10;55.70
12006;DHT22;6062;47.294;12.182;2022-12-20T02:09:03;9.10;55.60
12006;DHT22;6062;47.294;12.182;2022-12-20T02:32:36;9.00;54.90
12006;DHT22;6062;47.294;12.182;2022-12-20T02:35:05;9.00;55.00
12006;DHT22;6062;47.294;12.182;2022-12-20T02:37:33;9.00;55.10
12006;DHT22;6062;47.294;12.182;2022-12-20T02:39:59;9.00;55.30
12006;DHT22;6062;47.294;12.182;2022-12-20T02:42:27;9.00;55.40
12006;DHT22;6062;47.294;12.182;2022-12-20T02:45:02;9.00;55.50
12006;DHT22;6062;47.294;12.182;2022-12-20T02:50:48;9.10;55.50
12006;DHT22;6062;47.294;12.182;2022-12-20T02:53:17;9.00;55.30
12006;DHT22;6062;47.294;12.182;2022-12-20T02:55:47;9.10;55.20
12006;DHT22;6062;47.294;12.182;2022-12-20T02:58:22;9.10;55.20
12006;DHT22;6062;47.294;12.182;2022-12-20T03:01:05;9.10;55.20
12006;DHT22;6062;47.294;12.182;2022-12-20T03:03:35;9.20;55.30
12006;DHT22;6062;47.294;12.182;2022-12-20T03:06:01;9.20;55.20
12006;DHT22;6062;47.294;12.182;2022-12-20T03:08:28;9.20;55.00
12006;DHT22;6062;47.294;12.182;2022-12-20T03:10:54;9.20;55.00
12006;DHT22;6062;47.294;12.182;2022-12-20T03:13:23;9.20;55.00
12006;DHT22;6062;47.294;12.182;2022-12-20T03:15:49;9.30;55.00
12006;DHT22;6062;47.294;12.182;2022-12-20T03:18:15;9.20;54.90
12006;DHT22;6062;47.294;12.182;2022-12-20T03:20:41;9.20;54.50
12006;DHT22;6062;47.294;12.182;2022-12-20T03:23:07;9.20;54.20
12006;DHT22;6062;47.294;12.182;2022-12-20T03:25:33;9.20;54.10
12006;DHT22;6062;47.294;12.182;2022-12-20T03:27:58;9.10;54.10
12006;DHT22;6062;47.294;12.182;2022-12-20T03:30:24;9.10;54.10
12006;DHT22;6062;47.294;12.182;2022-12-20T03:32:50;9.00;54.00
12006;DHT22;6062;47.294;12.182;2022-12-20T03:35:16;9.00;54.10
12006;DHT22;6062;47.294;12.182;2022-12-20T03:37:42;8.90;54.20
12006;DHT22;6062;47.294;12.182;2022-12-20T03:40:08;8.80;54.60
12006;DHT22;6062;47.294;12.182;2022-12-20T03:42:35;8.70;54.80
12006;DHT22;6062;47.294;12.182;2022-12-20T03:45:01;8.70;54.90
12006;DHT22;6062;47.294;12.182;2022-12-20T03:47:27;8.70;55.10
12006;DHT22;6062;47.294;12.182;2022-12-20T03:49:53;8.60;54.60
12006;DHT22;6062;47.294;12.182;2022-12-20T03:52:19;8.60;54.20
12006;DHT22;6062;47.294;12.182;2022-12-20T03:54:44;8.60;53.80
12006;DHT22;6062;47.294;12.182;2022-12-20T03:57:10;8.50;53.80
12006;DHT22;6062;47.294;12.182;2022-12-20T03:59:36;8.40;54.00
12006;DHT22;6062;47.294;12.182;2022-12-20T04:02:02;8.30;54.00
12006;DHT22;6062;47.294;12.182;2022-12-20T04:04:29;8.20;54.10
12006;DHT22;6062;47.294;12.182;2022-12-20T04:06:55;8.10;54.20
12006;DHT22;6062;47.294;12.182;2022-12-20T04:09:21;8.00;54.20
12006;DHT22;6062;47.294;12.182;2022-12-20T04:11:46;7.90;54.30
12006;DHT22;6062;47.294;12.182;2022-12-20T04:14:12;7.90;54.30
12006;DHT22;6062;47.294;12.182;2022-12-20T04:16:38;7.80;54.40
12006;DHT22;6062;47.294;12.182;2022-12-20T04:19:03;7.70;54.20
12006;DHT22;6062;47.294;12.182;2022-12-20T04:21:32;7.70;54.30
12006;DHT22;6062;47.294;12.182;2022-12-20T04:24:00;7.60;54.40
12006;DHT22;6062;47.294;12.182;2022-12-20T04:26:27;7.50;54.40
12006;DHT22;6062;47.294;12.182;2022-12-20T04:28:54;7.40;54.40
12006;DHT22;6062;47.294;12.182;2022-12-20T04:31:20;7.40;54.60
12006;DHT22;6062;47.294;12.182;2022-12-20T04:33:46;7.30;54.80
12006;DHT22;6062;47.294;12.182;2022-12-20T04:36:13;7.20;54.80
12006;DHT22;6062;47.294;12.182;2022-12-20T04:38:40;7.20;55.00
12006;DHT22;6062;47.294;12.182;2022-12-20T04:41:06;7.10;55.10
12006;DHT22;6062;47.294;12.182;2022-12-20T04:43:31;7.10;55.10
12006;DHT22;6062;47.294;12.182;2022-12-20T04:45:57;7.00;55.00
12006;DHT22;6062;47.294;12.182;2022-12-20T04:48:25;7.00;55.10
12006;DHT22;6062;47.294;12.182;2022-12-20T04:50:53;6.90;55.20
12006;DHT22;6062;47.294;12.182;2022-12-20T04:53:21;6.90;55.50
12006;DHT22;6062;47.294;12.182;2022-12-20T04:56:07;6.80;55.60
12006;DHT22;6062;47.294;12.182;2022-12-20T04:58:33;6.80;55.60
12006;DHT22;6062;47.294;12.182;2022-12-20T05:00:59;6.70;55.70
12006;DHT22;6062;47.294;12.182;2022-12-20T05:03:25;6.70;55.80
12006;DHT22;6062;47.294;12.182;2022-12-20T05:05:52;6.60;56.00
12006;DHT22;6062;47.294;12.182;2022-12-20T05:08:18;6.60;56.00
12006;DHT22;6062;47.294;12.182;2022-12-20T05:10:44;6.60;56.10
12006;DHT22;6062;47.294;12.182;2022-12-20T05:13:10;6.50;56.10
12006;DHT22;6062;47.294;12.182;2022-12-20T05:15:35;6.50;56.30
12006;DHT22;6062;47.294;12.182;2022-12-20T05:18:02;6.50;56.40
12006;DHT22;6062;47.294;12.182;2022-12-20T05:20:29;6.50;56.40
12006;DHT22;6062;47.294;12.182;2022-12-20T05:22:56;6.50;56.50
12006;DHT22;6062;47.294;12.182;2022-12-20T05:25:44;6.50;56.70
12006;DHT22;6062;47.294;12.182;2022-12-20T05:28:30;6.50;57.00
12006;DHT22;6062;47.294;12.182;2022-12-20T05:30:56;6.50;57.20
12006;DHT22;6062;47.294;12.182;2022-12-20T05:33:21;6.50;57.40
12006;DHT22;6062;47.294;12.182;2022-12-20T05:35:47;6.50;57.70
12006;DHT22;6062;47.294;12.182;2022-12-20T05:38:13;6.50;57.70
12006;DHT22;6062;47.294;12.182;2022-12-20T05:40:39;6.50;57.90
12006;DHT22;6062;47.294;12.182;2022-12-20T05:43:05;6.50;57.80
12006;DHT22;6062;47.294;12.182;2022-12-20T05:45:32;6.50;57.80
12006;DHT22;6062;47.294;12.182;2022-12-20T05:47:57;6.60;57.80
12006;DHT22;6062;47.294;12.182;2022-12-20T05:50:24;6.60;57.70
12006;DHT22;6062;47.294;12.182;2022-12-20T05:52:50;6.60;57.50
12006;DHT22;6062;47.294;12.182;2022-12-20T05:55:16;6.60;57.40
12006;DHT22;6062;47.294;12.182;2022-12-20T05:57:41;6.60;57.40
12006;DHT22;6062;47.294;12.182;2022-12-20T06:00:08;6.70;57.40
12006;DHT22;6062;47.294;12.182;2022-12-20T06:02:35;6.70;57.30
12006;DHT22;6062;47.294;12.182;2022-12-20T06:05:01;6.70;57.30
12006;DHT22;6062;47.294;12.182;2022-12-20T06:07:27;6.70;57.30
12006;DHT22;6062;47.294;12.182;2022-12-20T06:09:57;6.70;57.40
12006;DHT22;6062;47.294;12.182;2022-12-20T06:12:23;6.70;57.40
12006;DHT22;6062;47.294;12.182;2022-12-20T06:14:49;6.80;57.50
12006;DHT22;6062;47.294;12.182;2022-12-20T06:17:15;6.80;57.40
12006;DHT22;6062;47.294;12.182;2022-12-20T06:19:41;6.80;57.20
12006;DHT22;6062;47.294;12.182;2022-12-20T06:22:07;6.80;57.20
12006;DHT22;6062;47.294;12.182;2022-12-20T06:24:34;6.80;57.80
12006;DHT22;6062;47.294;12.182;2022-12-20T06:27:01;6.80;57.20
12006;DHT22;6062;47.294;12.182;2022-12-20T06:29:28;6.80;57.10
12006;DHT22;6062;47.294;12.182;2022-12-20T06:31:54;6.80;57.00
12006;DHT22;6062;47.294;12.182;2022-12-20T06:34:20;6.80;57.10
12006;DHT22;6062;47.294;12.182;2022-12-20T06:36:47;6.80;57.30
12006;DHT22;6062;47.294;12.182;2022-12-20T06:39:12;6.90;57.60
12006;DHT22;6062;47.294;12.182;2022-12-20T06:41:39;6.90;57.80
12006;DHT22;6062;47.294;12.182;2022-12-20T06:44:05;7.00;58.10
12006;DHT22;6062;47.294;12.182;2022-12-20T06:46:31;7.10;58.10
12006;DHT22;6062;47.294;12.182;2022-12-20T06:48:57;7.10;58.00
12006;DHT22;6062;47.294;12.182;2022-12-20T06:51:23;7.20;57.90
12006;DHT22;6062;47.294;12.182;2022-12-20T06:53:50;7.30;57.80
12006;DHT22;6062;47.294;12.182;2022-12-20T06:56:16;7.40;57.60
12006;DHT22;6062;47.294;12.182;2022-12-20T06:58:41;7.50;57.40
12006;DHT22;6062;47.294;12.182;2022-12-20T07:01:07;7.50;57.10
12006;DHT22;6062;47.294;12.182;2022-12-20T07:03:33;7.60;56.90
12006;DHT22;6062;47.294;12.182;2022-12-20T07:05:58;7.60;56.60
12006;DHT22;6062;47.294;12.182;2022-12-20T07:08:24;7.70;56.50
12006;DHT22;6062;47.294;12.182;2022-12-20T07:10:51;7.60;56.30
12006;DHT22;6062;47.294;12.182;2022-12-20T07:13:19;7.60;56.40
12006;DHT22;6062;47.294;12.182;2022-12-20T07:15:45;7.60;56.50
12006;DHT22;6062;47.294;12.182;2022-12-20T07:18:11;7.60;56.60
12006;DHT22;6062;47.294;12.182;2022-12-20T07:20:37;7.50;56.70
12006;DHT22;6062;47.294;12.182;2022-12-20T07:23:03;7.50;56.70
12006;DHT22;6062;47.294;12.182;2022-12-20T07:25:28;7.50;56.50
12006;DHT22;6062;47.294;12.182;2022-12-20T07:27:54;7.50;56.40
12006;DHT22;6062;47.294;12.182;2022-12-20T07:30:20;7.60;56.50
12006;DHT22;6062;47.294;12.182;2022-12-20T07:32:46;7.50;56.50
12006;DHT22;6062;47.294;12.182;2022-12-20T07:35:13;7.50;56.50
12006;DHT22;6062;47.294;12.182;2022-12-20T07:37:40;7.50;56.60
12006;DHT22;6062;47.294;12.182;2022-12-20T07:40:06;7.50;56.70
12006;DHT22;6062;47.294;12.182;2022-12-20T07:42:33;7.50;56.70
12006;DHT22;6062;47.294;12.182;2022-12-20T07:44:59;7.50;56.60
12006;DHT22;6062;47.294;12.182;2022-12-20T07:47:25;7.50;56.60
12006;DHT22;6062;47.294;12.182;2022-12-20T07:49:51;7.50;56.50
12006;DHT22;6062;47.294;12.182;2022-12-20T07:52:19;7.60;56.70
12006;DHT22;6062;47.294;12.182;2022-12-20T07:54:51;7.60;56.60
12006;DHT22;6062;47.294;12.182;2022-12-20T07:57:28;7.60;56.40
12006;DHT22;6062;47.294;12.182;2022-12-20T07:59:59;7.60;56.50
12006;DHT22;6062;47.294;12.182;2022-12-20T08:02:31;7.70;56.50
12006;DHT22;6062;47.294;12.182;2022-12-20T08:05:02;7.70;56.50
12006;DHT22;6062;47.294;12.182;2022-12-20T08:07:30;7.80;56.50
12006;DHT22;6062;47.294;12.182;2022-12-20T08:09:56;7.90;56.40
12006;DHT22;6062;47.294;12.182;2022-12-20T08:12:23;7.90;56.40
12006;DHT22;6062;47.294;12.182;2022-12-20T08:14:52;7.90;56.30
12006;DHT22;6062;47.294;12.182;2022-12-20T08:17:21;8.00;56.10
12006;DHT22;6062;47.294;12.182;2022-12-20T08:19:47;8.00;56.00
12006;DHT22;6062;47.294;12.182;2022-12-20T08:22:19;8.10;55.90
12006;DHT22;6062;47.294;12.182;2022-12-20T08:24:45;8.10;55.90
12006;DHT22;6062;47.294;12.182;2022-12-20T08:27:11;8.20;55.90
12006;DHT22;6062;47.294;12.182;2022-12-20T08:29:36;8.20;55.80
12006;DHT22;6062;47.294;12.182;2022-12-20T08:32:02;8.30;55.60
12006;DHT22;6062;47.294;12.182;2022-12-20T08:34:28;8.30;55.50
12006;DHT22;6062;47.294;12.182;2022-12-20T08:36:54;8.40;55.60
12006;DHT22;6062;47.294;12.182;2022-12-20T08:39:20;8.40;55.50
12006;DHT22;6062;47.294;12.182;2022-12-20T08:41:45;8.50;55.40
12006;DHT22;6062;47.294;12.182;2022-12-20T08:44:12;8.50;55.30
12006;DHT22;6062;47.294;12.182;2022-12-20T08:46:38;8.60;55.20
12006;DHT22;6062;47.294;12.182;2022-12-20T08:49:04;8.70;55.30
12006;DHT22;6062;47.294;12.182;2022-12-20T08:51:30;8.80;55.30
12006;DHT22;6062;47.294;12.182;2022-12-20T08:53:56;8.90;55.10
12006;DHT22;6062;47.294;12.182;2022-12-20T08:56:22;9.00;55.00
12006;DHT22;6062;47.294;12.182;2022-12-20T08:58:48;9.20;55.00
12006;DHT22;6062;47.294;12.182;2022-12-20T09:01:18;9.30;54.80
12006;DHT22;6062;47.294;12.182;2022-12-20T09:03:46;9.40;54.40
12006;DHT22;6062;47.294;12.182;2022-12-20T09:06:15;9.60;54.10
12006;DHT22;6062;47.294;12.182;2022-12-20T09:08:43;9.70;53.90
12006;DHT22;6062;47.294;12.182;2022-12-20T09:11:12;9.80;54.30
12006;DHT22;6062;47.294;12.182;2022-12-20T09:13:44;10.00;54.70
12006;DHT22;6062;47.294;12.182;2022-12-20T09:16:13;10.20;55.00
12006;DHT22;6062;47.294;12.182;2022-12-20T09:18:41;10.50;55.00
12006;DHT22;6062;47.294;12.182;2022-12-20T09:21:07;10.80;55.10
12006;DHT22;6062;47.294;12.182;2022-12-20T09:23:36;11.10;55.00
12006;DHT22;6062;47.294;12.182;2022-12-20T09:26:03;11.40;54.10
12006;DHT22;6062;47.294;12.182;2022-12-20T09:28:32;11.80;53.10
12006;DHT22;6062;47.294;12.182;2022-12-20T09:31:03;12.30;52.40
12006;DHT22;6062;47.294;12.182;2022-12-20T09:33:31;12.70;52.20
12006;DHT22;6062;47.294;12.182;2022-12-20T09:35:58;13.10;52.10
12006;DHT22;6062;47.294;12.182;2022-12-20T09:38:25;13.50;51.30
12006;DHT22;6062;47.294;12.182;2022-12-20T09:40:54;13.90;50.00
12006;DHT22;6062;47.294;12.182;2022-12-20T09:43:23;14.30;49.10
12006;DHT22;6062;47.294;12.182;2022-12-20T09:45:54;14.60;48.60
12006;DHT22;6062;47.294;12.182;2022-12-20T09:48:27;14.90;48.00
12006;DHT22;6062;47.294;12.182;2022-12-20T09:57:22;15.70;46.70
12006;DHT22;6062;47.294;12.182;2022-12-20T09:59:57;16.00;44.70
12006;DHT22;6062;47.294;12.182;2022-12-20T10:02:24;16.20;44.80
12006;DHT22;6062;47.294;12.182;2022-12-20T10:04:52;16.40;44.90
12006;DHT22;6062;47.294;12.182;2022-12-20T10:07:37;16.60;44.30
12006;DHT22;6062;47.294;12.182;2022-12-20T10:22:15;17.20;40.80
12006;DHT22;6062;47.294;12.182;2022-12-20T10:24:52;17.20;40.70
12006;DHT22;6062;47.294;12.182;2022-12-20T10:27:41;17.10;40.20
12006;DHT22;6062;47.294;12.182;2022-12-20T10:30:22;17.00;39.80
12006;DHT22;6062;47.294;12.182;2022-12-20T10:32:53;16.80;39.60
12006;DHT22;6062;47.294;12.182;2022-12-20T10:35:25;16.60;39.80
12006;DHT22;6062;47.294;12.182;2022-12-20T10:40:36;16.30;40.30
12006;DHT22;6062;47.294;12.182;2022-12-20T10:43:04;16.20;41.50
12006;DHT22;6062;47.294;12.182;2022-12-20T10:45:39;16.10;41.40
12006;DHT22;6062;47.294;12.182;2022-12-20T10:48:29;16.10;41.60
12006;DHT22;6062;47.294;12.182;2022-12-20T10:51:11;16.00;41.50
12006;DHT22;6062;47.294;12.182;2022-12-20T10:54:00;16.10;41.70
12006;DHT22;6062;47.294;12.182;2022-12-20T10:56:29;16.10;41.70
12006;DHT22;6062;47.294;12.182;2022-12-20T11:01:43;16.10;41.40
12006;DHT22;6062;47.294;12.182;2022-12-20T11:04:32;16.10;41.40
12006;DHT22;6062;47.294;12.182;2022-12-20T11:07:03;16.10;41.00
12006;DHT22;6062;47.294;12.182;2022-12-20T11:09:59;16.10;40.40
12006;DHT22;6062;47.294;12.182;2022-12-20T11:12:27;16.00;39.80
12006;DHT22;6062;47.294;12.182;2022-12-20T11:15:09;16.00;40.20
12006;DHT22;6062;47.294;12.182;2022-12-20T11:17:46;16.00;40.10
12006;DHT22;6062;47.294;12.182;2022-12-20T11:28:50;16.10;41.70
12006;DHT22;6062;47.294;12.182;2022-12-20T11:40:23;17.70;40.50
12006;DHT22;6062;47.294;12.182;2022-12-20T11:49:09;19.20;37.80
12006;DHT22;6062;47.294;12.182;2022-12-20T12:01:07;20.30;35.30
12006;DHT22;6062;47.294;12.182;2022-12-20T12:03:45;20.40;34.00
12006;DHT22;6062;47.294;12.182;2022-12-20T12:06:28;20.50;33.80
12006;DHT22;6062;47.294;12.182;2022-12-20T12:12:05;20.30;33.00
12006;DHT22;6062;47.294;12.182;2022-12-20T12:26:29;19.00;33.30
12006;DHT22;6062;47.294;12.182;2022-12-20T12:29:02;18.60;33.90
12006;DHT22;6062;47.294;12.182;2022-12-20T12:34:56;17.90;34.60
12006;DHT22;6062;47.294;12.182;2022-12-20T12:46:21;16.60;36.20
12006;DHT22;6062;47.294;12.182;2022-12-20T12:52:00;16.10;36.80
12006;DHT22;6062;47.294;12.182;2022-12-20T12:57:20;15.60;37.30
12006;DHT22;6062;47.294;12.182;2022-12-20T12:59:48;15.40;37.20
12006;DHT22;6062;47.294;12.182;2022-12-20T13:05:24;15.00;38.00
12006;DHT22;6062;47.294;12.182;2022-12-20T13:07:45;14.80;38.30
12006;DHT22;6062;47.294;12.182;2022-12-20T13:20:23;13.80;39.50
12006;DHT22;6062;47.294;12.182;2022-12-20T13:25:44;13.40;40.30
12006;DHT22;6062;47.294;12.182;2022-12-20T13:30:42;13.10;40.20
12006;DHT22;6062;47.294;12.182;2022-12-20T13:33:45;13.00;40.80
12006;DHT22;6062;47.294;12.182;2022-12-20T13:41:30;12.70;41.80
12006;DHT22;6062;47.294;12.182;2022-12-20T13:47:00;12.40;41.70
12006;DHT22;6062;47.294;12.182;2022-12-20T13:49:37;12.40;42.10
12006;DHT22;6062;47.294;12.182;2022-12-20T13:52:11;12.30;42.30
12006;DHT22;6062;47.294;12.182;2022-12-20T13:54:47;12.20;42.50
12006;DHT22;6062;47.294;12.182;2022-12-20T13:57:17;12.10;43.60
12006;DHT22;6062;47.294;12.182;2022-12-20T13:59:48;12.10;43.20
12006;DHT22;6062;47.294;12.182;2022-12-20T14:02:38;12.00;43.50
12006;DHT22;6062;47.294;12.182;2022-12-20T14:05:18;11.90;43.80
12006;DHT22;6062;47.294;12.182;2022-12-20T14:07:58;11.80;43.90
12006;DHT22;6062;47.294;12.182;2022-12-20T14:10:28;11.70;44.00
12006;DHT22;6062;47.294;12.182;2022-12-20T14:12:56;11.60;43.50
12006;DHT22;6062;47.294;12.182;2022-12-20T14:15:33;11.60;43.30
12006;DHT22;6062;47.294;12.182;2022-12-20T14:18:20;11.50;43.40
12006;DHT22;6062;47.294;12.182;2022-12-20T14:20:51;11.40;43.00
12006;DHT22;6062;47.294;12.182;2022-12-20T14:23:25;11.40;43.50
12006;DHT22;6062;47.294;12.182;2022-12-20T14:26:01;11.30;42.60
12006;DHT22;6062;47.294;12.182;2022-12-20T14:28:41;11.20;42.70
12006;DHT22;6062;47.294;12.182;2022-12-20T14:31:37;11.10;42.60
12006;DHT22;6062;47.294;12.182;2022-12-20T14:36:44;11.00;43.10
12006;DHT22;6062;47.294;12.182;2022-12-20T14:39:31;10.80;43.20
12006;DHT22;6062;47.294;12.182;2022-12-20T14:42:00;10.70;43.30
12006;DHT22;6062;47.294;12.182;2022-12-20T14:44:32;10.60;43.00
12006;DHT22;6062;47.294;12.182;2022-12-20T14:49:37;10.40;43.60
12006;DHT22;6062;47.294;12.182;2022-12-20T14:55:18;10.20;43.80
12006;DHT22;6062;47.294;12.182;2022-12-20T14:57:48;10.00;44.00
12006;DHT22;6062;47.294;12.182;2022-12-20T15:13:37;9.50;44.10
12006;DHT22;6062;47.294;12.182;2022-12-20T15:16:15;9.40;44.40
12006;DHT22;6062;47.294;12.182;2022-12-20T15:18:47;9.30;44.70
12006;DHT22;6062;47.294;12.182;2022-12-20T15:21:32;9.30;45.50
12006;DHT22;6062;47.294;12.182;2022-12-20T15:24:04;9.20;45.70
12006;DHT22;6062;47.294;12.182;2022-12-20T15:26:36;9.10;44.90
12006;DHT22;6062;47.294;12.182;2022-12-20T15:29:02;9.10;44.90
12006;DHT22;6062;47.294;12.182;2022-12-20T15:31:28;9.00;44.90
12006;DHT22;6062;47.294;12.182;2022-12-20T15:33:57;8.90;45.10
12006;DHT22;6062;47.294;12.182;2022-12-20T15:36:37;8.80;44.90
12006;DHT22;6062;47.294;12.182;2022-12-20T15:39:03;8.70;45.60
12006;DHT22;6062;47.294;12.182;2022-12-20T15:41:31;8.70;45.20
12006;DHT22;6062;47.294;12.182;2022-12-20T15:44:13;8.60;45.60
12006;DHT22;6062;47.294;12.182;2022-12-20T15:46:41;8.50;46.50
12006;DHT22;6062;47.294;12.182;2022-12-20T15:49:19;8.40;45.90
12006;DHT22;6062;47.294;12.182;2022-12-20T15:51:55;8.40;45.90
12006;DHT22;6062;47.294;12.182;2022-12-20T15:54:23;8.30;45.30
12006;DHT22;6062;47.294;12.182;2022-12-20T15:56:55;8.30;45.90
12006;DHT22;6062;47.294;12.182;2022-12-20T15:59:21;8.20;45.90
12006;DHT22;6062;47.294;12.182;2022-12-20T16:01:47;8.20;46.10
12006;DHT22;6062;47.294;12.182;2022-12-20T16:04:15;8.10;46.20
12006;DHT22;6062;47.294;12.182;2022-12-20T16:06:46;8.10;46.20
12006;DHT22;6062;47.294;12.182;2022-12-20T16:09:14;8.10;46.40
12006;DHT22;6062;47.294;12.182;2022-12-20T16:11:40;8.00;46.60
12006;DHT22;6062;47.294;12.182;2022-12-20T16:14:16;8.00;46.80
12006;DHT22;6062;47.294;12.182;2022-12-20T16:16:46;7.90;47.30
12006;DHT22;6062;47.294;12.182;2022-12-20T16:19:14;7.90;47.20
12006;DHT22;6062;47.294;12.182;2022-12-20T16:21:44;7.90;47.50
12006;DHT22;6062;47.294;12.182;2022-12-20T16:24:12;7.90;47.80
12006;DHT22;6062;47.294;12.182;2022-12-20T16:26:40;7.80;48.10
12006;DHT22;6062;47.294;12.182;2022-12-20T16:29:06;7.80;48.30
12006;DHT22;6062;47.294;12.182;2022-12-20T16:31:38;7.90;48.80
12006;DHT22;6062;47.294;12.182;2022-12-20T16:34:13;7.90;48.50
12006;DHT22;6062;47.294;12.182;2022-12-20T16:36:41;7.90;48.60
12006;DHT22;6062;47.294;12.182;2022-12-20T16:39:07;7.90;48.40
12006;DHT22;6062;47.294;12.182;2022-12-20T16:41:36;7.90;48.40
12006;DHT22;6062;47.294;12.182;2022-12-20T16:44:05;7.90;48.40
12006;DHT22;6062;47.294;12.182;2022-12-20T16:46:36;7.90;48.00
12006;DHT22;6062;47.294;12.182;2022-12-20T16:49:02;7.90;47.50
12006;DHT22;6062;47.294;12.182;2022-12-20T16:54:05;7.90;47.60
12006;DHT22;6062;47.294;12.182;2022-12-20T16:56:49;7.90;47.60
12006;DHT22;6062;47.294;12.182;2022-12-20T16:59:19;8.00;47.50
12006;DHT22;6062;47.294;12.182;2022-12-20T17:01:46;8.00;47.40
12006;DHT22;6062;47.294;12.182;2022-12-20T17:04:15;8.00;47.40
12006;DHT22;6062;47.294;12.182;2022-12-20T17:06:43;8.00;47.50
12006;DHT22;6062;47.294;12.182;2022-12-20T17:09:09;8.00;47.60
12006;DHT22;6062;47.294;12.182;2022-12-20T17:11:36;8.10;47.40
12006;DHT22;6062;47.294;12.182;2022-12-20T17:14:03;8.10;47.50
12006;DHT22;6062;47.294;12.182;2022-12-20T17:16:29;8.10;47.30
12006;DHT22;6062;47.294;12.182;2022-12-20T17:18:55;8.10;47.20
12006;DHT22;6062;47.294;12.182;2022-12-20T17:24:03;8.10;47.30
12006;DHT22;6062;47.294;12.182;2022-12-20T17:26:34;8.20;47.50
12006;DHT22;6062;47.294;12.182;2022-12-20T17:29:00;8.20;47.50
12006;DHT22;6062;47.294;12.182;2022-12-20T17:31:31;8.20;48.20
12006;DHT22;6062;47.294;12.182;2022-12-20T17:34:04;8.20;47.40
12006;DHT22;6062;47.294;12.182;2022-12-20T17:36:31;8.20;47.20
12006;DHT22;6062;47.294;12.182;2022-12-20T17:38:57;8.20;47.80
12006;DHT22;6062;47.294;12.182;2022-12-20T17:41:26;8.20;47.20
12006;DHT22;6062;47.294;12.182;2022-12-20T17:43:54;8.30;47.10
12006;DHT22;6062;47.294;12.182;2022-12-20T17:46:21;8.30;47.20
12006;DHT22;6062;47.294;12.182;2022-12-20T17:48:47;8.30;47.20
12006;DHT22;6062;47.294;12.182;2022-12-20T17:51:19;8.40;47.30
12006;DHT22;6062;47.294;12.182;2022-12-20T17:53:52;8.40;47.00
12006;DHT22;6062;47.294;12.182;2022-12-20T17:56:25;8.50;46.90
12006;DHT22;6062;47.294;12.182;2022-12-20T17:58:58;8.50;46.70
12006;DHT22;6062;47.294;12.182;2022-12-20T18:01:27;8.50;47.00
12006;DHT22;6062;47.294;12.182;2022-12-20T18:03:56;8.60;46.90
12006;DHT22;6062;47.294;12.182;2022-12-20T18:06:24;8.60;46.80
12006;DHT22;6062;47.294;12.182;2022-12-20T18:08:53;8.60;46.70
12006;DHT22;6062;47.294;12.182;2022-12-20T18:11:21;8.60;46.60
12006;DHT22;6062;47.294;12.182;2022-12-20T18:13:50;8.60;46.60
12006;DHT22;6062;47.294;12.182;2022-12-20T18:16:22;8.60;47.30
12006;DHT22;6062;47.294;12.182;2022-12-20T18:18:53;8.60;46.70
12006;DHT22;6062;47.294;12.182;2022-12-20T18:21:21;8.50;46.70
12006;DHT22;6062;47.294;12.182;2022-12-20T18:23:49;8.50;46.70
12006;DHT22;6062;47.294;12.182;2022-12-20T18:28:49;8.50;46.90
12006;DHT22;6062;47.294;12.182;2022-12-20T18:31:20;8.40;46.90
12006;DHT22;6062;47.294;12.182;2022-12-20T18:33:47;8.40;46.50
12006;DHT22;6062;47.294;12.182;2022-12-20T18:36:16;8.40;46.60
12006;DHT22;6062;47.294;12.182;2022-12-20T18:38:44;8.40;46.50
12006;DHT22;6062;47.294;12.182;2022-12-20T18:41:13;8.40;46.70
12006;DHT22;6062;47.294;12.182;2022-12-20T18:43:44;8.40;46.90
12006;DHT22;6062;47.294;12.182;2022-12-20T18:46:12;8.30;46.90
12006;DHT22;6062;47.294;12.182;2022-12-20T18:48:42;8.30;47.10